createdAt,value
2023-04-17T00:00:31.946Z,12.72
2023-04-17T00:03:17.812Z,12.67
2023-04-17T00:05:46.375Z,12.62
2023-04-17T00:08:14.761Z,12.58
2023-04-17T00:10:44.369Z,12.53
2023-04-17T00:13:15.067Z,12.47
2023-04-17T00:15:44.192Z,12.41
2023-04-17T00:18:12.097Z,12.36
2023-04-17T00:20:40.044Z,12.32
2023-04-17T00:23:07.908Z,12.28
2023-04-17T00:25:35.911Z,12.24
2023-04-17T00:28:03.830Z,12.21
2023-04-17T00:30:31.771Z,12.17
2023-04-17T00:32:59.692Z,12.12
2023-04-17T00:35:27.618Z,12.06
2023-04-17T00:37:55.554Z,12.02
2023-04-17T00:40:23.746Z,12.00
2023-04-17T00:42:53.364Z,11.95
2023-04-17T00:45:21.646Z,11.89
2023-04-17T00:47:50.777Z,11.84
2023-04-17T00:50:19.089Z,11.80
2023-04-17T00:52:47.681Z,11.76
2023-04-17T00:55:16.043Z,11.72
2023-04-17T00:57:49.505Z,11.70
2023-04-17T01:00:20.836Z,11.69
2023-04-17T01:02:49.013Z,11.67
2023-04-17T01:05:17.187Z,11.64
2023-04-17T01:07:45.865Z,11.62
2023-04-17T01:10:14.077Z,11.59
2023-04-17T01:12:46.600Z,11.54
2023-04-17T01:15:15.523Z,11.51
2023-04-17T01:17:43.488Z,11.50
2023-04-17T01:20:12.134Z,11.49
2023-04-17T01:22:40.205Z,11.47
2023-04-17T01:25:09.007Z,11.46
2023-04-17T01:27:38.653Z,11.47
2023-04-17T01:30:07.564Z,11.46
2023-04-17T01:32:42.464Z,11.46
2023-04-17T01:35:11.509Z,11.46
2023-04-17T01:37:39.457Z,11.46
2023-04-17T01:40:08.181Z,11.45
2023-04-17T01:42:36.200Z,11.45
2023-04-17T01:45:05.398Z,11.44
2023-04-17T01:47:33.394Z,11.44
2023-04-17T01:50:01.470Z,11.45
2023-04-17T01:52:29.603Z,11.47
2023-04-17T01:54:57.674Z,11.47
2023-04-17T01:57:25.802Z,11.48
2023-04-17T01:59:53.711Z,11.49
2023-04-17T02:02:21.735Z,11.50
2023-04-17T02:04:51.092Z,11.51
2023-04-17T02:07:19.185Z,11.52
2023-04-17T02:09:47.124Z,11.54
2023-04-17T02:12:15.074Z,11.55
2023-04-17T02:14:44.118Z,11.57
2023-04-17T02:17:12.162Z,11.59
2023-04-17T02:19:40.199Z,11.61
2023-04-17T02:22:12.769Z,11.63
2023-04-17T02:24:40.653Z,11.64
2023-04-17T02:27:08.661Z,11.65
2023-04-17T02:29:36.594Z,11.66
2023-04-17T02:32:04.613Z,11.66
2023-04-17T02:34:32.696Z,11.66
2023-04-17T02:37:00.783Z,11.65
2023-04-17T02:39:28.981Z,11.65
2023-04-17T02:41:57.593Z,11.65
2023-04-17T02:44:25.635Z,11.64
2023-04-17T02:46:53.698Z,11.63
2023-04-17T02:49:22.035Z,11.62
2023-04-17T02:51:51.640Z,11.60
2023-04-17T02:54:19.583Z,11.60
2023-04-17T02:56:47.607Z,11.59
2023-04-17T02:59:15.858Z,11.60
2023-04-17T03:01:45.709Z,11.61
2023-04-17T03:04:14.727Z,11.64
2023-04-17T03:06:43.102Z,11.65
2023-04-17T03:09:12.566Z,11.66
2023-04-17T03:11:41.028Z,11.67
2023-04-17T03:14:09.070Z,11.69
2023-04-17T03:16:37.264Z,11.68
2023-04-17T03:19:05.549Z,11.68
2023-04-17T03:21:33.603Z,11.69
2023-04-17T03:24:01.604Z,11.69
2023-04-17T03:26:29.721Z,11.69
2023-04-17T03:28:59.558Z,11.70
2023-04-17T03:31:28.014Z,11.70
2023-04-17T03:33:56.140Z,11.70
2023-04-17T03:36:24.788Z,11.71
2023-04-17T03:38:53.580Z,11.72
2023-04-17T03:41:22.813Z,11.73
2023-04-17T03:43:50.852Z,11.74
2023-04-17T03:46:19.345Z,11.76
2023-04-17T03:48:49.944Z,11.78
2023-04-17T03:51:20.657Z,11.78
2023-04-17T03:53:58.678Z,11.79
2023-04-17T03:56:27.227Z,11.80
2023-04-17T03:58:55.479Z,11.82
2023-04-17T04:01:28.580Z,11.83
2023-04-17T04:04:15.269Z,11.83
2023-04-17T04:06:53.473Z,11.84
2023-04-17T04:09:32.209Z,11.83
2023-04-17T04:12:00.528Z,11.84
2023-04-17T04:14:29.217Z,11.83
2023-04-17T04:16:57.236Z,11.83
2023-04-17T04:19:26.522Z,11.85
2023-04-17T04:21:54.795Z,11.87
2023-04-17T04:24:25.744Z,11.89
2023-04-17T04:26:53.879Z,11.92
2023-04-17T04:29:25.835Z,11.95
2023-04-17T04:32:04.473Z,11.98
2023-04-17T04:34:38.380Z,11.99
2023-04-17T04:37:06.465Z,12.02
2023-04-17T04:39:41.929Z,12.03
2023-04-17T04:42:11.939Z,12.04
2023-04-17T04:44:53.181Z,12.04
2023-04-17T04:47:22.950Z,12.06
2023-04-17T04:49:51.289Z,12.08
2023-04-17T04:52:21.490Z,12.10
2023-04-17T04:54:50.035Z,12.10
2023-04-17T04:57:18.980Z,12.13
2023-04-17T04:59:48.033Z,12.15
2023-04-17T05:02:38.970Z,12.16
2023-04-17T05:05:12.657Z,12.17
2023-04-17T05:07:40.967Z,12.19
2023-04-17T05:10:12.371Z,12.22
2023-04-17T05:12:44.577Z,12.23
2023-04-17T05:15:15.484Z,12.26
2023-04-17T05:17:44.969Z,12.30
2023-04-17T05:20:15.448Z,12.32
2023-04-17T05:22:50.405Z,12.33
2023-04-17T05:25:19.844Z,12.32
2023-04-17T05:27:48.706Z,12.30
2023-04-17T05:30:19.336Z,12.28
2023-04-17T05:32:51.954Z,12.23
2023-04-17T05:35:37.439Z,12.20
2023-04-17T05:38:08.097Z,12.17
2023-04-17T05:40:42.859Z,12.12
2023-04-17T05:43:12.719Z,12.08
2023-04-17T05:45:44.298Z,12.06
2023-04-17T05:48:12.423Z,12.04
2023-04-17T05:50:40.570Z,12.04
2023-04-17T05:53:09.272Z,12.05
2023-04-17T05:55:41.759Z,12.06
2023-04-17T05:58:22.997Z,12.09
2023-04-17T06:00:52.445Z,12.13
2023-04-17T06:03:21.298Z,12.18
2023-04-17T06:05:52.189Z,12.21
2023-04-17T06:08:20.360Z,12.29
2023-04-17T06:10:51.108Z,12.36
2023-04-17T06:13:19.307Z,12.40
2023-04-17T06:15:50.479Z,12.46
2023-04-17T06:18:18.650Z,12.51
2023-04-17T06:20:47.235Z,12.60
2023-04-17T06:23:15.453Z,12.71
2023-04-17T06:25:43.535Z,12.81
2023-04-17T06:28:11.561Z,12.89
2023-04-17T06:30:39.880Z,12.97
2023-04-17T06:33:08.690Z,13.06
2023-04-17T06:35:37.884Z,13.17
2023-04-17T06:38:15.729Z,13.35
2023-04-17T06:40:44.957Z,13.48
2023-04-17T06:43:13.207Z,13.65
2023-04-17T06:46:26.488Z,13.82
2023-04-17T06:49:02.905Z,13.96
2023-04-17T06:51:33.786Z,14.10
2023-04-17T06:54:10.178Z,14.23
2023-04-17T06:56:38.499Z,14.33
2023-04-17T06:59:14.075Z,14.44
2023-04-17T07:01:56.960Z,14.56
2023-04-17T07:04:55.444Z,14.70
2023-04-17T07:07:36.574Z,14.92
2023-04-17T07:10:28.737Z,15.19
2023-04-17T07:13:37.478Z,15.49
2023-04-17T07:16:30.919Z,15.69
2023-04-17T07:19:41.442Z,15.80
2023-04-17T07:22:53.061Z,15.83
2023-04-17T07:25:30.221Z,15.97
2023-04-17T07:28:04.509Z,16.21
2023-04-17T07:30:34.034Z,16.33
2023-04-17T07:33:11.662Z,16.50
2023-04-17T07:36:09.678Z,16.66
2023-04-17T07:38:42.566Z,16.77
2023-04-17T07:41:17.175Z,16.80
2023-04-17T07:43:51.928Z,16.88
2023-04-17T07:46:40.560Z,16.80
2023-04-17T07:49:46.633Z,16.55
2023-04-17T07:52:15.764Z,16.41
2023-04-17T07:54:46.423Z,16.46
2023-04-17T07:57:15.677Z,16.50
2023-04-17T07:59:44.457Z,16.43
2023-04-17T08:02:16.898Z,16.38
2023-04-17T08:04:45.363Z,16.30
2023-04-17T08:07:14.602Z,16.20
2023-04-17T08:09:44.463Z,16.31
2023-04-17T08:12:12.515Z,16.41
2023-04-17T08:14:40.900Z,16.54
2023-04-17T08:17:09.046Z,16.67
2023-04-17T08:19:37.205Z,17.00
2023-04-17T08:22:06.337Z,17.26
2023-04-17T08:24:35.909Z,17.40
2023-04-17T08:27:05.187Z,17.57
2023-04-17T08:29:33.435Z,17.57
2023-04-17T08:32:13.927Z,17.51
2023-04-17T08:34:48.068Z,17.48
2023-04-17T08:37:16.104Z,17.63
2023-04-17T08:39:44.220Z,17.76
2023-04-17T08:42:16.724Z,17.78
2023-04-17T08:44:46.457Z,17.74
2023-04-17T08:47:18.490Z,17.61
2023-04-17T08:49:47.333Z,17.62
2023-04-17T08:52:21.841Z,17.70
2023-04-17T08:54:54.952Z,17.77
2023-04-17T08:57:23.385Z,17.76
2023-04-17T09:00:15.984Z,17.92
2023-04-17T09:02:57.694Z,18.13
2023-04-17T09:05:30.497Z,18.31
2023-04-17T09:08:24.328Z,18.32
2023-04-17T09:10:57.830Z,18.37
2023-04-17T09:13:31.215Z,18.37
2023-04-17T09:16:19.691Z,18.16
2023-04-17T09:18:48.116Z,18.08
2023-04-17T09:21:19.194Z,18.22
2023-04-17T09:23:58.704Z,18.43
2023-04-17T09:26:31.970Z,18.65
2023-04-17T09:29:14.778Z,18.86
2023-04-17T09:31:43.891Z,18.83
2023-04-17T09:34:57.099Z,18.79
2023-04-17T09:37:56.007Z,18.92
2023-04-17T09:40:46.388Z,18.83
2023-04-17T09:43:17.270Z,18.56
2023-04-17T09:45:47.083Z,18.36
2023-04-17T09:48:15.867Z,18.34
2023-04-17T09:50:44.588Z,18.35
2023-04-17T09:53:15.958Z,18.37
2023-04-17T09:55:53.323Z,18.05
2023-04-17T09:58:23.812Z,17.95
2023-04-17T10:00:52.592Z,18.11
2023-04-17T10:03:23.796Z,18.36
2023-04-17T10:05:52.179Z,18.71
2023-04-17T10:08:20.262Z,19.07
2023-04-17T10:10:52.474Z,19.20
2023-04-17T10:13:33.358Z,19.15
2023-04-17T10:16:06.092Z,18.97
2023-04-17T10:18:34.593Z,18.90
2023-04-17T10:21:22.067Z,18.78
2023-04-17T10:23:50.403Z,18.61
2023-04-17T10:26:30.687Z,18.65
2023-04-17T10:29:00.900Z,19.06
2023-04-17T10:32:09.073Z,19.28
2023-04-17T10:34:44.003Z,19.58
2023-04-17T10:38:41.124Z,19.77
2023-04-17T10:40:53.028Z,19.60
2023-04-17T10:43:22.756Z,19.48
2023-04-17T10:45:54.050Z,19.52
2023-04-17T10:48:31.389Z,19.65
2023-04-17T10:51:22.282Z,19.69
2023-04-17T10:53:52.283Z,19.79
2023-04-17T10:57:15.333Z,19.81
2023-04-17T10:59:43.893Z,19.79
2023-04-17T11:02:12.028Z,19.84
2023-04-17T11:04:40.558Z,20.02
2023-04-17T11:07:08.563Z,20.17
2023-04-17T11:09:36.978Z,20.23
2023-04-17T11:12:07.769Z,20.07
2023-04-17T11:14:40.685Z,20.02
2023-04-17T11:17:09.349Z,20.14
2023-04-17T11:19:37.390Z,20.39
2023-04-17T11:22:05.576Z,20.77
2023-04-17T11:24:33.678Z,20.99
2023-04-17T11:27:03.653Z,21.06
2023-04-17T11:29:32.030Z,21.33
2023-04-17T11:32:01.350Z,21.44
2023-04-17T11:34:30.417Z,21.26
2023-04-17T11:37:01.145Z,21.01
2023-04-17T11:39:33.761Z,20.72
2023-04-17T11:42:05.293Z,20.45
2023-04-17T11:44:33.484Z,20.21
2023-04-17T11:47:02.557Z,20.03
2023-04-17T11:49:32.885Z,19.88
2023-04-17T11:52:04.446Z,19.70
2023-04-17T11:54:38.206Z,19.62
2023-04-17T11:57:37.386Z,19.65
2023-04-17T12:00:15.687Z,19.71
2023-04-17T12:02:44.133Z,19.85
2023-04-17T12:05:14.588Z,19.95
2023-04-17T12:07:44.139Z,20.02
2023-04-17T12:10:17.402Z,20.11
2023-04-17T12:12:45.706Z,20.16
2023-04-17T12:15:14.145Z,20.21
2023-04-17T12:17:46.214Z,20.12
2023-04-17T12:20:14.768Z,19.93
2023-04-17T12:22:42.915Z,19.76
2023-04-17T12:25:11.183Z,19.71
2023-04-17T12:27:39.585Z,19.70
2023-04-17T12:30:09.699Z,19.71
2023-04-17T12:32:40.366Z,19.73
2023-04-17T12:35:08.892Z,19.75
2023-04-17T12:37:39.602Z,19.80
2023-04-17T12:40:09.052Z,19.88
2023-04-17T12:42:48.649Z,19.82
2023-04-17T12:45:24.388Z,19.88
2023-04-17T12:47:52.549Z,19.81
2023-04-17T12:50:22.964Z,19.76
2023-04-17T12:52:51.212Z,19.54
2023-04-17T12:55:41.176Z,19.17
2023-04-17T12:58:13.594Z,18.68
2023-04-17T13:00:46.908Z,18.29
2023-04-17T13:03:21.521Z,17.81
2023-04-17T13:06:18.629Z,17.43
2023-04-17T13:09:17.002Z,17.12
2023-04-17T13:12:18.989Z,16.78
2023-04-17T13:14:49.698Z,16.25
2023-04-17T13:17:17.967Z,15.84
2023-04-17T13:19:46.219Z,15.57
2023-04-17T13:22:15.761Z,15.40
2023-04-17T13:24:47.140Z,15.28
2023-04-17T13:27:15.488Z,15.17
2023-04-17T13:29:43.661Z,15.07
2023-04-17T13:32:26.220Z,14.91
2023-04-17T13:35:03.515Z,14.81
2023-04-17T13:37:48.113Z,14.84
2023-04-17T13:40:19.662Z,14.92
2023-04-17T13:42:51.249Z,15.04
2023-04-17T13:45:19.410Z,15.21
2023-04-17T13:47:47.760Z,15.33
2023-04-17T13:50:15.979Z,15.44
2023-04-17T13:52:44.218Z,15.59
2023-04-17T13:55:14.860Z,15.77
2023-04-17T13:57:52.136Z,15.82
2023-04-17T14:00:23.266Z,15.81
2023-04-17T14:02:54.710Z,15.82
2023-04-17T14:05:23.256Z,15.93
2023-04-17T14:07:51.833Z,15.95
2023-04-17T14:10:20.193Z,15.90
2023-04-17T14:12:48.717Z,15.92
2023-04-17T14:15:17.070Z,16.02
2023-04-17T14:17:45.408Z,16.12
2023-04-17T14:20:15.271Z,16.17
2023-04-17T14:22:43.641Z,16.08
2023-04-17T14:25:11.830Z,15.93
2023-04-17T14:27:40.170Z,15.90
2023-04-17T14:30:09.068Z,15.90
2023-04-17T14:32:44.259Z,15.94
2023-04-17T14:35:13.472Z,15.90
2023-04-17T14:37:42.373Z,15.90
2023-04-17T14:40:11.052Z,16.03
2023-04-17T14:42:53.134Z,16.18
2023-04-17T14:45:22.811Z,16.31
2023-04-17T14:47:51.289Z,16.42
2023-04-17T14:50:19.676Z,16.44
2023-04-17T14:52:48.216Z,16.41
2023-04-17T14:55:16.719Z,16.39
2023-04-17T14:57:45.077Z,16.41
2023-04-17T15:00:14.002Z,16.40
2023-04-17T15:02:42.319Z,16.34
2023-04-17T15:05:11.138Z,16.34
2023-04-17T15:07:39.405Z,16.33
2023-04-17T15:10:08.070Z,16.40
2023-04-17T15:12:36.825Z,16.50
2023-04-17T15:15:06.593Z,16.55
2023-04-17T15:17:37.394Z,16.60
2023-04-17T15:20:06.406Z,16.63
2023-04-17T15:22:40.798Z,16.60
2023-04-17T15:25:09.215Z,16.54
2023-04-17T15:27:37.552Z,16.47
2023-04-17T15:30:10.971Z,16.43
2023-04-17T15:32:39.357Z,16.33
2023-04-17T15:35:08.378Z,16.31
2023-04-17T15:37:43.818Z,16.27
2023-04-17T15:40:12.088Z,16.18
2023-04-17T15:42:40.321Z,16.09
2023-04-17T15:45:13.090Z,16.01
2023-04-17T15:47:46.899Z,15.89
2023-04-17T15:50:15.147Z,15.76
2023-04-17T15:52:43.411Z,15.62
2023-04-17T15:55:11.561Z,15.55
2023-04-17T15:57:47.147Z,15.45
2023-04-17T16:00:17.078Z,15.34
2023-04-17T16:02:48.296Z,15.25
2023-04-17T16:05:17.568Z,15.17
2023-04-17T16:07:47.906Z,15.11
2023-04-17T16:10:16.703Z,15.03
2023-04-17T16:12:46.532Z,14.96
2023-04-17T16:15:17.135Z,14.95
2023-04-17T16:17:45.786Z,14.93
2023-04-17T16:20:14.426Z,14.94
2023-04-17T16:22:42.931Z,14.96
2023-04-17T16:25:14.171Z,14.89
2023-04-17T16:27:45.275Z,14.77
2023-04-17T16:30:13.604Z,14.64
2023-04-17T16:32:42.032Z,14.52
2023-04-17T16:35:10.675Z,14.42
2023-04-17T16:37:38.617Z,14.35
2023-04-17T16:40:07.490Z,14.28
2023-04-17T16:42:36.604Z,14.21
2023-04-17T16:45:06.797Z,14.16
2023-04-17T16:47:35.043Z,14.13
2023-04-17T16:50:03.669Z,14.09
2023-04-17T16:52:31.654Z,14.07
2023-04-17T16:54:59.771Z,14.05
2023-04-17T16:57:27.770Z,14.03
2023-04-17T16:59:55.756Z,14.03
2023-04-17T17:02:23.826Z,14.00
2023-04-17T17:04:52.018Z,13.99
2023-04-17T17:07:20.625Z,13.96
2023-04-17T17:09:48.875Z,13.93
2023-04-17T17:12:16.885Z,13.88
2023-04-17T17:14:47.588Z,13.85
2023-04-17T17:17:15.838Z,13.81
2023-04-17T17:19:43.936Z,13.77
2023-04-17T17:22:11.986Z,13.74
2023-04-17T17:24:40.019Z,13.71
2023-04-17T17:27:08.088Z,13.69
2023-04-17T17:29:36.112Z,13.66
2023-04-17T17:32:04.474Z,13.64
2023-04-17T17:34:32.658Z,13.62
2023-04-17T17:37:00.760Z,13.60
2023-04-17T17:39:31.003Z,13.57
2023-04-17T17:41:59.063Z,13.54
2023-04-17T17:44:27.020Z,13.49
2023-04-17T17:46:54.919Z,13.44
2023-04-17T17:49:22.905Z,13.35
2023-04-17T17:51:50.977Z,13.23
2023-04-17T17:54:19.129Z,13.13
2023-04-17T17:56:47.404Z,12.98
2023-04-17T17:59:15.542Z,12.88
2023-04-17T18:01:43.665Z,12.83
2023-04-17T18:04:12.408Z,12.76
2023-04-17T18:06:41.084Z,12.73
2023-04-17T18:09:09.096Z,12.73
2023-04-17T18:11:37.748Z,12.71
2023-04-17T18:14:06.774Z,12.70
2023-04-17T18:16:36.261Z,12.72
2023-04-17T18:19:05.237Z,12.71
2023-04-17T18:21:34.125Z,12.66
2023-04-17T18:24:02.160Z,12.62
2023-04-17T18:26:30.179Z,12.58
2023-04-17T18:29:00.876Z,12.54
2023-04-17T18:31:29.128Z,12.51
2023-04-17T18:34:02.385Z,12.53
2023-04-17T18:36:31.292Z,12.57
2023-04-17T18:38:59.412Z,12.61
2023-04-17T18:41:27.503Z,12.63
2023-04-17T18:43:55.662Z,12.64
2023-04-17T18:46:24.458Z,12.67
2023-04-17T18:48:52.682Z,12.68
2023-04-17T18:51:21.443Z,12.70
2023-04-17T18:53:50.399Z,12.72
2023-04-17T18:56:19.911Z,12.71
2023-04-17T18:58:48.033Z,12.70
2023-04-17T19:01:16.193Z,12.72
2023-04-17T19:03:44.878Z,12.71
2023-04-17T19:06:12.933Z,12.74
2023-04-17T19:08:40.814Z,12.75
2023-04-17T19:11:08.818Z,12.74
2023-04-17T19:13:36.875Z,12.74
2023-04-17T19:16:05.038Z,12.74
2023-04-17T19:18:33.365Z,12.75
2023-04-17T19:21:02.109Z,12.77
2023-04-17T19:23:32.476Z,12.78
2023-04-17T19:26:00.441Z,12.79
2023-04-17T19:28:28.687Z,12.81
2023-04-17T19:31:00.204Z,12.79
2023-04-17T19:33:28.498Z,12.77
2023-04-17T19:35:58.360Z,12.78
2023-04-17T19:38:28.081Z,12.76
2023-04-17T19:41:22.676Z,12.66
2023-04-17T19:44:16.803Z,12.60
2023-04-17T19:46:48.266Z,12.57
2023-04-17T19:49:16.190Z,12.54
2023-04-17T19:51:46.604Z,12.48
2023-04-17T19:54:15.969Z,12.47
2023-04-17T19:56:44.075Z,12.46
2023-04-17T19:59:16.414Z,12.41
2023-04-17T20:01:44.546Z,12.38
2023-04-17T20:04:14.254Z,12.34
2023-04-17T20:06:42.567Z,12.30
2023-04-17T20:09:13.289Z,12.27
2023-04-17T20:11:43.092Z,12.25
2023-04-17T20:14:14.690Z,12.25
2023-04-17T20:16:45.313Z,12.23
2023-04-17T20:19:13.441Z,12.21
2023-04-17T20:21:42.304Z,12.21
2023-04-17T20:24:10.773Z,12.19
2023-04-17T20:26:38.727Z,12.18
2023-04-17T20:29:06.752Z,12.19
2023-04-17T20:31:36.509Z,12.19
2023-04-17T20:34:04.778Z,12.16
2023-04-17T20:36:32.911Z,12.14
2023-04-17T20:39:00.971Z,12.13
2023-04-17T20:41:39.361Z,12.11
2023-04-17T20:44:11.655Z,12.10
2023-04-17T20:46:40.000Z,12.09
2023-04-17T20:49:08.005Z,12.08
2023-04-17T20:51:36.179Z,12.06
2023-04-17T20:54:04.252Z,12.06
2023-04-17T20:56:32.210Z,12.07
2023-04-17T20:59:01.826Z,12.09
2023-04-17T21:01:30.025Z,12.10
2023-04-17T21:03:58.373Z,12.11
2023-04-17T21:06:27.003Z,12.13
2023-04-17T21:08:55.372Z,12.14
2023-04-17T21:11:23.446Z,12.13
2023-04-17T21:13:51.479Z,12.11
2023-04-17T21:16:19.611Z,12.10
2023-04-17T21:18:49.874Z,12.08
2023-04-17T21:21:21.075Z,12.06
2023-04-17T21:23:50.732Z,12.03
2023-04-17T21:26:19.019Z,12.00
2023-04-17T21:28:49.156Z,11.98
2023-04-17T21:31:20.519Z,11.97
2023-04-17T21:33:59.239Z,11.96
2023-04-17T21:36:30.050Z,11.94
2023-04-17T21:38:58.196Z,11.93
2023-04-17T21:41:30.175Z,11.90
2023-04-17T21:44:02.657Z,11.87
2023-04-17T21:46:32.821Z,11.85
2023-04-17T21:49:00.917Z,11.84
2023-04-17T21:51:34.339Z,11.83
2023-04-17T21:54:02.565Z,11.83
2023-04-17T21:56:31.003Z,11.83
2023-04-17T21:58:59.680Z,11.84
2023-04-17T22:01:28.082Z,11.87
2023-04-17T22:03:57.736Z,11.90
2023-04-17T22:06:28.179Z,11.92
2023-04-17T22:09:03.673Z,11.93
2023-04-17T22:11:33.154Z,11.99
2023-04-17T22:14:01.254Z,12.05
2023-04-17T22:16:29.412Z,12.07
2023-04-17T22:18:57.448Z,12.12
2023-04-17T22:21:27.066Z,12.16
2023-04-17T22:23:54.952Z,12.18
2023-04-17T22:26:23.047Z,12.20
2023-04-17T22:28:51.044Z,12.22
2023-04-17T22:31:19.350Z,12.23
2023-04-17T22:33:47.727Z,12.22
2023-04-17T22:36:29.492Z,12.22
2023-04-17T22:39:01.169Z,12.22
2023-04-17T22:41:30.633Z,12.21
2023-04-17T22:43:58.744Z,12.21
2023-04-17T22:46:31.711Z,12.20
2023-04-17T22:49:01.686Z,12.18
2023-04-17T22:51:29.742Z,12.18
2023-04-17T22:54:21.531Z,12.17
2023-04-17T22:56:47.980Z,12.18
2023-04-17T22:59:18.852Z,12.16
2023-04-17T23:01:49.766Z,12.16
2023-04-17T23:04:23.082Z,12.15
2023-04-17T23:06:51.031Z,12.16
2023-04-17T23:09:19.089Z,12.15
2023-04-17T23:11:47.158Z,12.15
2023-04-17T23:14:15.386Z,12.15
2023-04-17T23:16:44.921Z,12.14
2023-04-17T23:19:16.712Z,12.13
2023-04-17T23:21:45.813Z,12.10
2023-04-17T23:24:14.117Z,12.09
2023-04-17T23:26:45.325Z,12.07
2023-04-17T23:29:17.765Z,12.05
2023-04-17T23:31:45.787Z,12.04
2023-04-17T23:34:14.237Z,12.01
2023-04-17T23:36:43.853Z,12.01
2023-04-17T23:39:11.918Z,12.01
2023-04-17T23:41:42.886Z,12.01
2023-04-17T23:44:11.130Z,12.00
2023-04-17T23:46:39.675Z,11.98
2023-04-17T23:49:08.030Z,11.95
2023-04-17T23:51:36.139Z,11.93
2023-04-17T23:54:04.363Z,11.91
2023-04-17T23:56:35.096Z,11.87
2023-04-17T23:59:05.904Z,11.85
